Time;durP1;ratioP1;P1;durP2;ratioP2;P2;SDS_P1;SDS_P2;PMS_P1;PMS_P2;Temp;Humidity;BMP_temperature;BMP_pressure;BME280_temperature;BME280_humidity;BME280_pressure;Samples;Min_cycle;Max_cycle;Signal;HPM_P1;HPM_P2
2023/07/05 00:00:44;;;;;;;12.73;3.90;;;;;;;11.49;100.00;100703.84;5001386;28;20026;-73
2023/07/05 00:03:10;;;;;;;11.33;3.23;;;;;;;11.45;100.00;100694.50;4989715;28;20415;-73
2023/07/05 00:05:39;;;;;;;11.80;3.60;;;;;;;11.41;100.00;100696.69;5003373;28;20068;-73
2023/07/05 00:08:05;;;;;;;12.70;4.65;;;;;;;11.35;100.00;100695.50;4992939;28;20037;-73
2023/07/05 00:10:31;;;;;;;10.07;3.90;;;;;;;11.43;100.00;100691.19;5001920;28;20093;-73
2023/07/05 00:12:57;;;;;;;11.60;3.97;;;;;;;11.39;100.00;100686.16;5006317;28;20038;-73
2023/07/05 00:15:22;;;;;;;7.63;3.67;;;;;;;11.33;100.00;100680.66;4983313;28;20025;-74
2023/07/05 00:17:48;;;;;;;10.63;3.30;;;;;;;11.29;100.00;100671.31;4999878;28;20614;-73
2023/07/05 00:20:13;;;;;;;8.90;4.07;;;;;;;11.20;100.00;100665.13;4992176;28;20662;-73
2023/07/05 00:22:39;;;;;;;8.50;3.50;;;;;;;11.13;100.00;100664.97;5006946;28;20281;-73
2023/07/05 00:25:05;;;;;;;13.33;4.77;;;;;;;11.11;100.00;100668.81;4999142;28;20320;-73
2023/07/05 00:27:31;;;;;;;9.90;4.40;;;;;;;11.07;100.00;100675.50;5005291;28;20062;-73
2023/07/05 00:29:56;;;;;;;9.48;4.18;;;;;;;11.01;100.00;100676.19;5007280;28;20026;-73
2023/07/05 00:32:22;;;;;;;7.88;4.03;;;;;;;10.99;100.00;100669.16;5005176;28;20514;-73
2023/07/05 00:34:47;;;;;;;8.83;3.70;;;;;;;10.94;100.00;100671.50;4998395;28;20035;-73
2023/07/05 00:37:13;;;;;;;11.60;4.50;;;;;;;10.92;100.00;100656.63;4988011;28;20030;-72
2023/07/05 00:39:38;;;;;;;6.78;4.35;;;;;;;10.92;100.00;100662.81;5003248;28;20034;-73
2023/07/05 00:42:05;;;;;;;15.25;4.45;;;;;;;10.94;100.00;100666.16;4983037;28;20604;-73
2023/07/05 00:44:30;;;;;;;8.32;4.65;;;;;;;11.02;100.00;100680.50;4984261;28;20049;-73
2023/07/05 00:47:24;;;;;;;14.23;5.28;;;;;;;11.12;100.00;100670.47;4972925;28;20922;-73
2023/07/05 00:49:49;;;;;;;9.55;4.25;;;;;;;11.18;100.00;100675.16;4995471;28;20042;-73
2023/07/05 00:52:17;;;;;;;9.93;5.25;;;;;;;11.18;100.00;100665.28;4998618;28;20076;-73
2023/07/05 00:54:50;;;;;;;10.20;4.95;;;;;;;11.24;100.00;100665.63;4999851;28;20080;-73
2023/07/05 00:57:25;;;;;;;11.82;5.55;;;;;;;11.30;100.00;100659.59;4996437;28;20033;-73
2023/07/05 01:00:08;;;;;;;16.08;5.68;;;;;;;11.32;100.00;100658.44;4997710;28;20053;-73
2023/07/05 01:02:40;;;;;;;11.35;4.95;;;;;;;11.32;100.00;100647.75;5005283;28;20100;-73
2023/07/05 01:05:09;;;;;;;9.45;5.28;;;;;;;11.34;100.00;100644.91;5006153;28;20030;-73
2023/07/05 01:07:36;;;;;;;13.10;6.13;;;;;;;11.39;100.00;100637.22;4988367;28;20037;-73
2023/07/05 01:10:01;;;;;;;;;;;;;;;11.43;100.00;100643.06;4982744;28;20031;-73
2023/07/05 01:12:32;;;;;;;;;;;;;;;11.46;100.00;100648.06;4998800;28;19960;-73
2023/07/05 01:15:07;;;;;;;8.27;4.00;;;;;;;11.52;100.00;100650.03;4996172;28;19955;-73
2023/07/05 01:17:44;;;;;;;12.00;4.53;;;;;;;11.55;100.00;100641.69;4988629;28;20038;-73
2023/07/05 01:20:24;;;;;;;8.80;4.70;;;;;;;11.59;100.00;100640.34;4998752;28;20548;-73
2023/07/05 01:23:09;;;;;;;15.02;6.07;;;;;;;11.59;100.00;100635.00;4999803;28;20380;-73
2023/07/05 01:26:02;;;;;;;9.50;4.85;;;;;;;11.62;100.00;100632.81;4994671;28;20034;-73
2023/07/05 01:28:41;;;;;;;7.93;4.85;;;;;;;11.60;100.00;100618.75;4990857;28;20364;-73
2023/07/05 01:31:44;;;;;;;12.45;5.45;;;;;;;11.64;100.00;100613.91;4999552;28;20034;-73
2023/07/05 01:34:26;;;;;;;9.57;4.93;;;;;;;11.67;100.00;100618.91;5006359;28;20434;-73
2023/07/05 01:36:51;;;;;;;12.82;5.05;;;;;;;11.72;100.00;100616.56;4999105;28;20034;-73
2023/07/05 01:39:17;;;;;;;6.75;5.15;;;;;;;11.64;100.00;100607.75;4989914;28;20021;-72
2023/07/05 01:41:43;;;;;;;11.50;5.13;;;;;;;11.70;100.00;100601.69;4993061;28;20039;-73
2023/07/05 01:44:10;;;;;;;11.20;5.38;;;;;;;11.75;100.00;100602.84;4993729;28;20075;-73
2023/07/05 01:46:50;;;;;;;12.45;5.93;;;;;;;11.80;100.00;100605.00;4982327;28;20631;-73
2023/07/05 01:49:31;;;;;;;7.63;4.43;;;;;;;11.75;100.00;100589.47;4987712;28;20361;-73
2023/07/05 01:52:06;;;;;;;8.70;4.07;;;;;;;11.81;100.00;100583.41;4988441;28;20423;-73
2023/07/05 01:55:00;;;;;;;7.78;4.15;;;;;;;11.89;100.00;100563.00;4993107;28;20499;-74
2023/07/05 01:57:34;;;;;;;9.25;3.80;;;;;;;11.92;100.00;100551.97;4995442;28;20052;-73
2023/07/05 02:00:10;;;;;;;8.60;4.60;;;;;;;12.01;100.00;100545.53;4970164;28;20116;-74
2023/07/05 02:02:45;;;;;;;10.35;3.92;;;;;;;11.93;100.00;100532.22;4997970;28;20048;-73
2023/07/05 02:05:12;;;;;;;13.55;3.78;;;;;;;11.94;100.00;100528.53;4986097;28;20030;-74
2023/07/05 02:07:37;;;;;;;6.13;3.40;;;;;;;11.96;100.00;100521.16;5004918;28;20037;-73
2023/07/05 02:13:31;;;;;;;6.40;3.67;;;;;;;11.82;100.00;100488.81;4967667;28;20457;-73
2023/07/05 02:15:57;;;;;;;9.25;3.60;;;;;;;11.95;100.00;100495.44;4929569;29;20027;-73
2023/07/05 02:18:22;;;;;;;8.40;4.67;;;;;;;11.93;100.00;100482.22;4934314;28;20512;-73
2023/07/05 02:20:48;;;;;;;8.65;3.75;;;;;;;11.77;100.00;100474.28;4936629;29;20478;-73
2023/07/05 02:23:14;;;;;;;12.40;4.10;;;;;;;11.82;100.00;100487.94;4943311;29;20035;-73
2023/07/05 02:25:40;;;;;;;8.33;3.47;;;;;;;11.76;100.00;100478.81;4926871;29;20489;-73
2023/07/05 02:28:09;;;;;;;21.33;5.38;;;;;;;11.76;100.00;100473.44;4945310;29;20486;-72
2023/07/05 02:30:39;;;;;;;11.02;3.97;;;;;;;11.82;100.00;100472.75;4944132;28;20673;-73
2023/07/05 02:33:04;;;;;;;9.63;3.92;;;;;;;11.86;100.00;100470.53;4927043;29;20051;-73
2023/07/05 02:35:34;;;;;;;9.73;3.60;;;;;;;11.81;100.00;100465.72;4933967;29;20027;-73
2023/07/05 02:37:59;;;;;;;13.23;3.95;;;;;;;11.90;100.00;100466.53;4945975;28;20035;-73
2023/07/05 02:40:25;;;;;;;9.02;3.90;;;;;;;11.98;100.00;100465.66;4941361;28;20022;-73
2023/07/05 02:42:50;;;;;;;7.17;3.50;;;;;;;11.93;100.00;100450.13;4931322;29;21031;-73
2023/07/05 02:45:16;;;;;;;9.85;4.43;;;;;;;11.95;100.00;100444.59;4934270;29;20031;-72
2023/07/05 02:47:42;;;;;;;11.93;4.43;;;;;;;11.97;100.00;100437.25;4936726;29;20094;-73
2023/07/05 02:50:08;;;;;;;9.10;4.40;;;;;;;12.07;100.00;100434.31;4960499;28;20485;-73
2023/07/05 02:52:34;;;;;;;9.35;4.00;;;;;;;12.14;100.00;100438.75;4941924;28;20047;-73
2023/07/05 02:54:59;;;;;;;5.40;3.70;;;;;;;12.14;100.00;100428.06;4928483;28;20024;-73
2023/07/05 02:57:24;;;;;;;6.27;3.20;;;;;;;12.16;100.00;100415.31;4927336;29;20038;-72
2023/07/05 02:59:50;;;;;;;13.93;5.13;;;;;;;12.15;100.00;100397.63;4933054;28;20147;-73
2023/07/05 03:02:16;;;;;;;6.88;3.78;;;;;;;12.23;100.00;100394.84;4926742;29;20118;-73
2023/07/05 03:04:41;;;;;;;10.03;4.40;;;;;;;12.28;100.00;100390.81;4942658;29;20072;-73
2023/07/05 03:07:07;;;;;;;8.63;3.92;;;;;;;12.16;100.00;100369.84;4930394;28;20409;-73
2023/07/05 03:09:32;;;;;;;6.17;3.40;;;;;;;12.25;100.00;100366.06;4925756;29;20060;-73
2023/07/05 03:11:57;;;;;;;9.33;4.13;;;;;;;12.26;100.00;100366.88;4936145;28;20043;-73
2023/07/05 03:14:23;;;;;;;6.80;3.47;;;;;;;12.22;100.00;100369.13;4941465;29;20162;-73
2023/07/05 03:16:48;;;;;;;11.57;4.70;;;;;;;12.29;100.00;100365.69;4946822;28;20071;-73
2023/07/05 03:19:13;;;;;;;12.83;4.47;;;;;;;12.20;100.00;100347.06;4933550;29;20031;-73
2023/07/05 03:21:41;;;;;;;12.15;3.65;;;;;;;12.29;100.00;100349.63;4934711;29;20047;-74
2023/07/05 03:24:06;;;;;;;9.52;3.88;;;;;;;12.35;100.00;100348.91;4934582;28;20488;-73
2023/07/05 03:26:32;;;;;;;8.13;3.90;;;;;;;12.25;100.00;100354.53;4935148;29;20035;-73
2023/07/05 03:28:57;;;;;;;9.80;4.60;;;;;;;12.21;100.00;100358.59;4933110;28;20054;-73
2023/07/05 03:31:23;;;;;;;13.87;5.13;;;;;;;12.12;100.00;100346.28;4935804;29;20086;-73
2023/07/05 03:33:52;;;;;;;8.67;4.00;;;;;;;12.13;100.00;100354.16;4946287;28;20492;-73
2023/07/05 03:36:19;;;;;;;8.00;4.07;;;;;;;12.11;100.00;100345.47;4934714;29;20524;-74
2023/07/05 03:38:44;;;;;;;13.57;5.10;;;;;;;12.07;100.00;100344.16;4927908;28;20370;-73
2023/07/05 03:41:17;;;;;;;15.63;4.63;;;;;;;12.09;100.00;100347.50;4932369;29;20165;-73
2023/07/05 03:43:43;;;;;;;9.07;4.15;;;;;;;12.03;100.00;100350.88;4931537;29;20050;-72
2023/07/05 03:46:13;;;;;;;13.77;4.03;;;;;;;12.09;100.00;100354.69;4932279;29;20087;-73
2023/07/05 03:48:41;;;;;;;17.13;5.05;;;;;;;12.02;100.00;100349.22;4935032;28;20424;-74
2023/07/05 03:51:09;;;;;;;8.30;4.47;;;;;;;12.06;100.00;100345.19;4926904;29;20038;-73
2023/07/05 03:53:34;;;;;;;6.40;3.90;;;;;;;12.07;100.00;100352.19;4932530;29;20045;-72
2023/07/05 03:56:02;;;;;;;13.33;5.10;;;;;;;12.18;100.00;100356.28;4937620;29;20020;-73
2023/07/05 03:58:28;;;;;;;10.07;4.32;;;;;;;12.24;100.00;100353.72;4921759;28;20102;-73
2023/07/05 04:01:08;;;;;;;9.90;5.00;;;;;;;12.23;100.00;100330.63;4945377;28;20035;-73
2023/07/05 04:03:34;;;;;;;7.53;4.20;;;;;;;12.31;100.00;100320.84;4932137;29;20440;-74
2023/07/05 04:06:01;;;;;;;10.73;4.95;;;;;;;12.39;100.00;100310.88;4935968;28;20032;-73
2023/07/05 04:08:26;;;;;;;8.82;4.57;;;;;;;12.50;100.00;100296.19;4934567;29;20036;-73
2023/07/05 04:10:52;;;;;;;8.67;4.63;;;;;;;12.59;100.00;100292.38;4926382;29;20455;-74
2023/07/05 04:13:17;;;;;;;11.67;5.97;;;;;;;12.63;100.00;100276.78;4922647;29;20036;-74
2023/07/05 04:15:43;;;;;;;14.02;5.88;;;;;;;12.75;100.00;100274.47;4942406;28;20032;-73
2023/07/05 04:18:08;;;;;;;13.17;4.70;;;;;;;12.65;100.00;100250.66;4945827;29;20065;-73
2023/07/05 04:20:36;;;;;;;9.60;5.20;;;;;;;12.61;100.00;100244.00;4937965;29;20122;-73
2023/07/05 04:23:02;;;;;;;8.32;5.32;;;;;;;12.65;100.00;100245.28;4934854;29;20515;-74
2023/07/05 04:25:27;;;;;;;11.68;5.15;;;;;;;12.67;100.00;100253.97;4946801;28;20102;-73
2023/07/05 04:27:52;;;;;;;18.57;6.00;;;;;;;12.80;100.00;100251.44;4937138;28;20054;-74
2023/07/05 04:30:18;;;;;;;9.80;5.17;;;;;;;12.89;100.00;100234.22;4933570;29;20047;-73
2023/07/05 04:32:43;;;;;;;11.27;4.97;;;;;;;12.92;100.00;100232.19;4940042;29;20496;-72
2023/07/05 04:35:10;;;;;;;15.93;5.53;;;;;;;12.84;100.00;100249.22;4942104;29;20020;-72
2023/07/05 04:37:35;;;;;;;11.90;5.95;;;;;;;12.74;100.00;100257.56;4941491;28;20031;-72
2023/07/05 04:40:01;;;;;;;12.97;5.30;;;;;;;12.88;100.00;100279.97;4943467;29;20120;-73
2023/07/05 04:42:26;;;;;;;14.77;5.50;;;;;;;12.82;100.00;100278.03;4939054;29;20066;-73
2023/07/05 04:44:51;;;;;;;11.90;6.10;;;;;;;12.79;100.00;100273.06;4938721;29;20027;-73
2023/07/05 04:47:17;;;;;;;11.47;5.60;;;;;;;12.87;100.00;100267.59;4939016;29;20035;-73
2023/07/05 04:49:42;;;;;;;13.10;5.57;;;;;;;12.83;100.00;100239.50;4929782;29;20382;-73
2023/07/05 04:52:08;;;;;;;12.87;5.93;;;;;;;12.94;100.00;100251.59;4945180;29;20035;-73
2023/07/05 04:54:33;;;;;;;11.47;5.87;;;;;;;12.91;100.00;100250.13;4938794;29;20284;-73
2023/07/05 04:56:58;;;;;;;15.40;5.37;;;;;;;12.98;100.00;100228.75;4932493;29;20038;-72
2023/07/05 04:59:24;;;;;;;14.77;5.90;;;;;;;13.02;100.00;100222.81;4935362;29;20027;-73
2023/07/05 05:01:49;;;;;;;15.07;6.07;;;;;;;13.07;100.00;100223.06;4929456;29;20098;-73
2023/07/05 05:04:14;;;;;;;13.07;5.60;;;;;;;13.03;100.00;100227.16;4943979;29;20024;-72
2023/07/05 05:06:44;;;;;;;18.77;7.53;;;;;;;13.03;100.00;100235.19;4939314;29;20035;-72
2023/07/05 05:09:09;;;;;;;11.93;5.88;;;;;;;12.95;100.00;100238.00;4943392;28;20388;-73
2023/07/05 05:11:34;;;;;;;17.87;6.40;;;;;;;13.01;100.00;100237.22;4938167;28;20042;-72
2023/07/05 05:13:59;;;;;;;12.93;5.97;;;;;;;12.95;100.00;100229.97;4939825;29;20079;-72
2023/07/05 05:16:25;;;;;;;14.27;7.07;;;;;;;12.89;100.00;100228.03;4944373;28;20035;-71
2023/07/05 05:18:50;;;;;;;18.90;6.93;;;;;;;12.96;100.00;100228.13;4940840;29;20039;-71
2023/07/05 05:21:15;;;;;;;18.33;7.00;;;;;;;12.84;100.00;100230.47;4942739;28;20039;-72
2023/07/05 05:23:41;;;;;;;13.20;7.60;;;;;;;12.88;100.00;100250.50;4939923;28;20036;-73
2023/07/05 05:26:06;;;;;;;17.27;7.27;;;;;;;12.80;100.00;100256.78;4941358;29;20504;-73
2023/07/05 05:28:32;;;;;;;13.30;6.27;;;;;;;12.81;100.00;100268.34;4939979;29;20035;-73
2023/07/05 05:31:03;;;;;;;16.63;6.77;;;;;;;12.71;100.00;100279.34;4939750;29;20408;-73
2023/07/05 05:33:29;;;;;;;19.10;6.88;;;;;;;12.62;100.00;100286.69;4942899;29;20046;-73
2023/07/05 05:35:54;;;;;;;11.63;6.72;;;;;;;12.66;100.00;100295.97;4939599;28;20024;-74
2023/07/05 05:38:20;;;;;;;13.43;7.07;;;;;;;12.70;100.00;100303.66;4942527;28;20027;-73
2023/07/05 05:40:49;;;;;;;17.47;7.53;;;;;;;12.71;100.00;100307.97;4938217;29;20378;-74
2023/07/05 05:43:15;;;;;;;13.43;7.38;;;;;;;12.66;100.00;100306.69;4946792;28;20046;-73
2023/07/05 05:45:42;;;;;;;12.50;7.83;;;;;;;12.66;100.00;100304.00;4941180;29;20031;-74
2023/07/05 05:48:08;;;;;;;18.92;7.35;;;;;;;12.73;100.00;100303.28;4939260;28;20035;-75
2023/07/05 05:50:33;;;;;;;17.50;7.55;;;;;;;12.62;100.00;100308.09;4939071;28;20038;-75
2023/07/05 05:52:59;;;;;;;12.48;6.82;;;;;;;12.56;100.00;100314.19;4953247;28;20044;-76
2023/07/05 05:55:24;;;;;;;15.57;8.15;;;;;;;12.40;100.00;100307.16;4944911;28;20457;-77
2023/07/05 05:57:50;;;;;;;16.30;8.17;;;;;;;12.48;100.00;100311.63;4938920;29;20042;-75
2023/07/05 06:00:15;;;;;;;18.53;8.77;;;;;;;12.45;100.00;100307.47;4939206;28;20028;-77
2023/07/05 06:02:41;;;;;;;16.67;7.97;;;;;;;12.40;100.00;100311.69;4939296;28;20040;-76
2023/07/05 06:05:08;;;;;;;17.42;10.15;;;;;;;12.43;100.00;100297.94;4938299;28;20094;-78
2023/07/05 06:07:34;;;;;;;20.48;8.85;;;;;;;12.49;100.00;100299.88;4938396;28;20263;-77
2023/07/05 06:09:59;;;;;;;19.43;9.97;;;;;;;12.47;100.00;100285.84;4928813;29;20150;-76
2023/07/05 06:12:27;;;;;;;23.20;9.53;;;;;;;12.54;100.00;100272.56;4935102;29;20090;-76
2023/07/05 06:14:53;;;;;;;12.77;7.97;;;;;;;12.46;100.00;100260.09;4933312;29;20028;-77
2023/07/05 06:17:18;;;;;;;17.47;9.27;;;;;;;12.49;100.00;100262.41;4949458;29;20032;-76
2023/07/05 06:19:43;;;;;;;18.50;9.60;;;;;;;12.59;100.00;100249.53;4937315;29;20043;-77
2023/07/05 06:22:09;;;;;;;22.40;8.87;;;;;;;12.60;100.00;100234.31;4939353;29;20481;-77
2023/07/05 06:24:34;;;;;;;16.27;9.20;;;;;;;12.51;100.00;100220.22;4945121;28;20035;-78
2023/07/05 06:27:00;;;;;;;15.90;9.70;;;;;;;12.56;100.00;100201.72;4945201;29;20035;-78
2023/07/05 06:29:26;;;;;;;15.15;8.90;;;;;;;12.55;100.00;100200.06;4937810;29;20024;-77
2023/07/05 06:31:51;;;;;;;18.27;9.70;;;;;;;12.54;100.00;100193.03;4941924;29;20047;-76
2023/07/05 06:34:17;;;;;;;24.27;10.53;;;;;;;12.55;100.00;100181.34;4939380;29;20354;-79
2023/07/05 06:36:42;;;;;;;18.37;9.93;;;;;;;12.59;100.00;100182.59;4937806;29;20122;-78
2023/07/05 06:39:07;;;;;;;15.50;9.40;;;;;;;12.64;100.00;100174.00;4946192;29;20030;-76
2023/07/05 06:41:33;;;;;;;22.47;9.47;;;;;;;12.61;100.00;100161.81;4922008;29;20464;-75
2023/07/05 06:43:58;;;;;;;18.43;9.97;;;;;;;12.64;100.00;100157.91;4945945;29;20035;-76
2023/07/05 06:46:24;;;;;;;17.50;9.20;;;;;;;12.56;100.00;100158.06;4927289;29;20059;-76
2023/07/05 06:48:50;;;;;;;18.33;11.00;;;;;;;12.63;100.00;100167.00;4932847;28;20110;-78
2023/07/05 06:51:16;;;;;;;;;;;;;;;12.62;100.00;100179.56;4935388;28;20038;-77
2023/07/05 06:53:42;;;;;;;19.92;9.07;;;;;;;12.59;100.00;100165.69;4948427;29;19918;-78
2023/07/05 06:56:09;;;;;;;18.27;9.90;;;;;;;12.61;100.00;100151.09;4949126;29;20038;-78
2023/07/05 06:58:38;;;;;;;19.42;9.73;;;;;;;12.60;100.00;100151.31;4951158;29;20459;-77
2023/07/05 07:01:03;;;;;;;18.33;9.95;;;;;;;12.63;100.00;100159.78;4943538;28;20027;-75
2023/07/05 07:03:29;;;;;;;14.57;9.38;;;;;;;12.66;100.00;100148.69;4936809;28;20038;-76
2023/07/05 07:05:56;;;;;;;15.63;9.13;;;;;;;12.76;100.00;100136.81;4941162;29;20547;-77
2023/07/05 07:08:28;;;;;;;17.70;9.70;;;;;;;12.84;100.00;100134.03;4930456;29;20468;-76
2023/07/05 07:10:53;;;;;;;15.68;9.63;;;;;;;12.75;100.00;100125.28;4943926;28;20067;-75
2023/07/05 07:13:19;;;;;;;23.47;9.83;;;;;;;12.98;100.00;100130.44;4965728;28;20528;-77
2023/07/05 07:15:44;;;;;;;34.40;9.50;;;;;;;12.92;100.00;100119.66;4941524;28;20497;-77
2023/07/05 07:18:10;;;;;;;22.37;11.00;;;;;;;12.94;100.00;100113.09;4942571;28;20110;-77
2023/07/05 07:20:35;;;;;;;15.40;9.43;;;;;;;12.95;100.00;100108.56;4939800;28;20055;-76
2023/07/05 07:23:00;;;;;;;12.15;8.73;;;;;;;13.04;100.00;100115.41;4925297;29;20118;-77
2023/07/05 07:25:27;;;;;;;18.27;10.00;;;;;;;13.06;100.00;100119.59;4938034;28;20040;-77
2023/07/05 07:27:53;;;;;;;16.77;10.82;;;;;;;13.22;100.00;100114.94;4944267;29;20078;-76
2023/07/05 07:30:18;;;;;;;21.20;10.60;;;;;;;13.14;100.00;100107.91;4946857;29;20035;-75
2023/07/05 07:32:45;;;;;;;14.90;9.77;;;;;;;13.03;100.00;100095.84;4940582;28;20142;-76
2023/07/05 07:35:11;;;;;;;16.23;10.25;;;;;;;13.02;100.00;100110.28;4942387;28;20038;-75
2023/07/05 07:37:36;;;;;;;32.33;11.50;;;;;;;13.01;100.00;100091.72;4923959;29;20477;-77
2023/07/05 07:40:04;;;;;;;31.33;11.17;;;;;;;13.00;100.00;100096.25;4938630;29;20389;-77
2023/07/05 07:42:29;;;;;;;16.55;9.98;;;;;;;13.05;100.00;100101.03;4924596;29;20080;-78
2023/07/05 07:44:55;;;;;;;18.43;10.40;;;;;;;12.92;100.00;100080.28;4941698;29;20042;-76
2023/07/05 07:47:21;;;;;;;16.70;10.52;;;;;;;12.96;100.00;100086.94;4948372;29;20035;-77
2023/07/05 07:49:47;;;;;;;17.25;10.23;;;;;;;13.02;100.00;100091.53;4925723;29;20039;-77
2023/07/05 07:52:14;;;;;;;;;;;;;;;12.89;100.00;100094.91;4939309;28;20035;-76
2023/07/05 07:54:39;;;;;;;18.85;10.80;;;;;;;12.80;100.00;100090.72;4937700;29;19922;-79
2023/07/05 07:57:05;;;;;;;22.53;12.30;;;;;;;12.78;100.00;100089.25;4924188;29;20477;-77
2023/07/05 07:59:30;;;;;;;20.30;11.45;;;;;;;12.88;100.00;100087.09;4940877;28;20633;-78
2023/07/05 08:01:56;;;;;;;19.23;11.37;;;;;;;12.80;100.00;100079.16;4926007;29;20425;-77
2023/07/05 08:04:24;;;;;;;18.60;11.63;;;;;;;12.86;100.00;100075.72;4947910;29;20042;-77
2023/07/05 08:06:51;;;;;;;18.95;11.50;;;;;;;12.90;100.00;100079.69;4927150;29;20334;-79
2023/07/05 08:09:21;;;;;;;19.40;10.95;;;;;;;12.92;100.00;100082.16;4929009;29;20508;-79
2023/07/05 08:11:46;;;;;;;21.08;10.80;;;;;;;13.06;100.00;100084.75;4939966;29;20051;-78
2023/07/05 08:14:15;;;;;;;17.40;10.65;;;;;;;12.96;100.00;100062.81;4948744;28;20099;-79
2023/07/05 08:16:41;;;;;;;21.23;10.70;;;;;;;13.07;100.00;100064.97;4940094;28;20042;-78
2023/07/05 08:19:07;;;;;;;22.17;11.95;;;;;;;13.15;100.00;100072.00;4928972;29;20023;-77
2023/07/05 08:21:33;;;;;;;22.08;10.85;;;;;;;13.24;100.00;100086.94;4927429;29;20436;-77
2023/07/05 08:23:58;;;;;;;17.75;10.75;;;;;;;13.28;100.00;100108.84;4944105;28;20032;-77
2023/07/05 08:26:23;;;;;;;19.20;12.97;;;;;;;13.17;100.00;100104.00;4943066;28;20039;-78
2023/07/05 08:28:49;;;;;;;22.60;10.90;;;;;;;13.19;100.00;100097.41;4930975;29;20118;-80
2023/07/05 08:31:14;;;;;;;24.77;12.87;;;;;;;13.44;100.00;100102.38;4950077;28;20047;-79
2023/07/05 08:33:41;;;;;;;22.98;12.13;;;;;;;13.50;100.00;100097.00;4944752;28;20059;-79
2023/07/05 08:36:12;;;;;;;17.67;11.55;;;;;;;13.43;100.00;100096.16;4946440;28;20370;-78
2023/07/05 08:38:56;;;;;;;20.45;11.48;;;;;;;13.42;100.00;100083.78;4950286;28;20043;-76
2023/07/05 08:41:41;;;;;;;24.60;14.15;;;;;;;13.48;100.00;100066.06;4960846;28;20039;-77
2023/07/05 08:44:13;;;;;;;21.27;12.40;;;;;;;13.62;100.00;100078.50;4961477;28;20411;-78
2023/07/05 08:46:39;;;;;;;20.52;12.23;;;;;;;13.71;100.00;100065.78;4930150;29;20117;-75
2023/07/05 08:49:20;;;;;;;19.48;12.30;;;;;;;13.65;100.00;100061.19;4946149;28;20029;-79
2023/07/05 08:51:46;;;;;;;16.65;11.70;;;;;;;13.61;100.00;100057.28;4959502;28;20374;-78
2023/07/05 08:54:13;;;;;;;25.67;13.37;;;;;;;13.69;100.00;100051.72;4947606;28;20026;-76
2023/07/05 08:56:46;;;;;;;18.27;12.13;;;;;;;13.75;100.00;100056.31;4940038;28;20031;-75
2023/07/05 08:59:31;;;;;;;23.27;11.85;;;;;;;13.77;100.00;100053.44;4940654;29;20031;-75
2023/07/05 09:01:59;;;;;;;20.63;11.25;;;;;;;13.80;100.00;100053.03;4942985;29;20039;-79
2023/07/05 09:04:34;;;;;;;21.35;12.25;;;;;;;13.89;100.00;100066.06;4948519;29;20023;-78
2023/07/05 09:07:38;;;;;;;24.23;12.77;;;;;;;14.00;100.00;100055.75;4949359;29;20027;-78
2023/07/05 09:10:15;;;;;;;20.83;13.38;;;;;;;13.90;100.00;100048.91;4937300;29;20055;-76
2023/07/05 09:12:54;;;;;;;22.88;12.02;;;;;;;13.86;100.00;100047.69;4940242;28;20561;-77
2023/07/05 09:15:23;;;;;;;19.10;11.85;;;;;;;14.11;100.00;100061.38;4944469;29;20031;-78
2023/07/05 09:17:49;;;;;;;24.40;12.00;;;;;;;14.01;100.00;100049.38;4942076;29;20105;-76
2023/07/05 09:20:32;;;;;;;17.08;11.75;;;;;;;14.10;100.00;100053.53;4950251;28;20130;-76
2023/07/05 09:23:03;;;;;;;20.00;11.25;;;;;;;14.18;100.00;100061.38;4928475;29;20556;-73
2023/07/05 09:25:31;;;;;;;17.13;11.63;;;;;;;14.24;100.00;100059.78;4943467;29;20444;-76
2023/07/05 09:28:08;;;;;;;19.70;12.35;;;;;;;14.27;100.00;100052.13;4942163;29;20098;-77
2023/07/05 09:30:35;;;;;;;18.77;10.90;;;;;;;14.35;100.00;100056.47;4937697;28;20082;-75
2023/07/05 09:33:38;;;;;;;21.73;11.48;;;;;;;14.38;100.00;100066.00;4956445;28;20055;-75
2023/07/05 09:36:10;;;;;;;19.85;12.80;;;;;;;14.68;100.00;100070.00;4923780;29;20056;-74
2023/07/05 09:38:41;;;;;;;19.98;11.35;;;;;;;15.30;100.00;100069.72;4919013;29;20441;-77
2023/07/05 09:41:17;;;;;;;17.52;10.57;;;;;;;15.92;100.00;100056.72;4909583;29;20035;-75
2023/07/05 09:43:43;;;;;;;18.08;10.07;;;;;;;16.39;100.00;100046.53;4920179;29;20036;-74
2023/07/05 09:46:19;;;;;;;14.97;8.80;;;;;;;17.19;100.00;100049.41;4922978;29;20036;-74
2023/07/05 09:48:46;;;;;;;10.82;8.35;;;;;;;16.44;100.00;100003.59;4917984;29;20517;-76
2023/07/05 09:51:12;;;;;;;12.70;9.00;;;;;;;16.03;100.00;99984.16;4896750;29;20027;-78
2023/07/05 09:53:40;;;;;;;13.45;8.73;;;;;;;16.04;100.00;100010.06;4908360;29;20049;-75
2023/07/05 09:56:13;;;;;;;13.13;8.18;;;;;;;15.76;100.00;99994.28;4910338;29;20023;-76
2023/07/05 09:58:43;;;;;;;12.48;7.90;;;;;;;15.56;100.00;99999.72;4920464;29;20066;-76
2023/07/05 10:01:15;;;;;;;12.63;8.40;;;;;;;15.30;100.00;100008.69;4905100;29;20487;-73
2023/07/05 10:04:03;;;;;;;14.68;8.02;;;;;;;15.40;100.00;100019.00;4917549;29;20047;-76
2023/07/05 10:06:29;;;;;;;14.70;9.45;;;;;;;15.57;100.00;100014.81;4909042;29;20040;-76
2023/07/05 10:08:56;;;;;;;12.85;8.35;;;;;;;15.81;100.00;100018.69;4905811;29;20191;-75
2023/07/05 10:11:23;;;;;;;13.50;9.38;;;;;;;16.03;100.00;100021.88;4928241;29;20456;-76
2023/07/05 10:14:07;;;;;;;14.95;9.30;;;;;;;16.70;100.00;100020.59;4942843;28;20043;-75
2023/07/05 10:16:52;;;;;;;16.05;8.52;;;;;;;17.17;100.00;100011.03;4941410;28;20035;-76
2023/07/05 10:19:38;;;;;;;9.43;7.82;;;;;;;16.99;100.00;99976.78;4939377;29;20038;-76
2023/07/05 10:22:13;;;;;;;12.32;7.60;;;;;;;17.38;100.00;99980.09;4942263;29;20043;-75
2023/07/05 10:24:45;;;;;;;11.52;7.57;;;;;;;17.21;100.00;99968.28;4939009;28;20489;-74
2023/07/05 10:27:33;;;;;;;11.73;7.32;;;;;;;17.80;100.00;99939.69;4939964;28;20027;-76
2023/07/05 10:30:21;;;;;;;10.85;7.25;;;;;;;18.49;100.00;99885.22;4939229;28;20269;-75
2023/07/05 10:33:06;;;;;;;10.13;6.55;;;;;;;18.38;100.00;99822.03;4941985;29;20040;-76
2023/07/05 10:35:33;;;;;;;9.88;6.40;;;;;;;18.21;100.00;99837.28;4942124;28;20113;-77
2023/07/05 10:37:59;;;;;;;8.38;5.20;;;;;;;17.56;100.00;99820.03;4939789;29;20039;-75
2023/07/05 10:40:25;;;;;;;6.53;4.60;;;;;;;17.32;100.00;99802.94;4936947;29;20035;-77
2023/07/05 10:42:54;;;;;;;9.82;4.80;;;;;;;17.40;100.00;99675.00;4938717;28;20441;-77
2023/07/05 10:45:21;;;;;;;5.22;4.13;;;;;;;17.00;100.00;99610.94;4943362;29;20190;-76
2023/07/05 10:47:52;;;;;;;9.25;3.95;;;;;;;18.21;100.00;99683.31;4956480;28;20030;-76
2023/07/05 10:50:25;;;;;;;6.10;4.30;;;;;;;18.58;100.00;99562.16;4937994;29;20035;-75
2023/07/05 10:52:59;;;;;;;6.32;4.00;;;;;;;19.05;100.00;99444.75;4950758;28;20478;-76
2023/07/05 10:55:51;;;;;;;5.10;3.35;;;;;;;18.24;100.00;99245.19;4940946;29;20575;-76
2023/07/05 10:58:20;;;;;;;4.25;3.05;;;;;;;19.00;100.00;99283.22;4939045;29;20046;-76
2023/07/05 11:00:53;;;;;;;3.60;2.92;;;;;;;19.36;100.00;99257.34;4938521;29;20038;-76
2023/07/05 11:03:25;;;;;;;5.82;3.03;;;;;;;19.78;100.00;99142.09;4941302;28;20043;-76
2023/07/05 11:05:55;;;;;;;5.72;2.90;;;;;;;20.02;100.00;99074.81;4937719;29;20501;-75
2023/07/05 11:08:28;;;;;;;5.22;2.72;;;;;;;20.21;100.00;98815.84;4940025;29;20473;-75
2023/07/05 11:10:57;;;;;;;5.72;2.65;;;;;;;20.24;100.00;98712.31;4937815;29;20066;-74
2023/07/05 11:13:23;;;;;;;4.13;2.55;;;;;;;20.52;100.00;98668.59;4938862;29;20049;-74
2023/07/05 11:15:49;;;;;;;5.45;2.50;;;;;;;20.40;99.65;98411.50;4953091;28;20035;-75
2023/07/05 11:18:19;;;;;;;5.03;2.55;;;;;;;20.32;95.23;98406.66;4936875;28;20027;-76
2023/07/05 11:20:51;;;;;;;3.70;2.10;;;;;;;19.35;93.36;98338.50;4940885;28;20531;-76
2023/07/05 11:23:42;;;;;;;3.70;2.35;;;;;;;19.33;94.22;98572.53;4945073;29;20035;-74